sensor_id;sensor_type;location;lat;lon;timestamp;temperature;humidity
64549;DHT22;49838;51.798;10.954;2023-12-20T00:02:18;11.80;49.70
64549;DHT22;49838;51.798;10.954;2023-12-20T00:04:46;11.80;49.80
64549;DHT22;49838;51.798;10.954;2023-12-20T00:07:13;11.80;49.60
64549;DHT22;49838;51.798;10.954;2023-12-20T00:09:40;11.90;49.60
64549;DHT22;49838;51.798;10.954;2023-12-20T00:12:08;11.80;49.70
64549;DHT22;49838;51.798;10.954;2023-12-20T00:14:36;11.80;49.70
64549;DHT22;49838;51.798;10.954;2023-12-20T00:17:04;11.80;49.60
64549;DHT22;49838;51.798;10.954;2023-12-20T00:19:31;11.80;49.60
64549;DHT22;49838;51.798;10.954;2023-12-20T00:21:58;11.90;49.60
64549;DHT22;49838;51.798;10.954;2023-12-20T00:24:26;11.80;49.70
64549;DHT22;49838;51.798;10.954;2023-12-20T00:26:53;11.80;49.80
64549;DHT22;49838;51.798;10.954;2023-12-20T00:29:20;11.80;49.80
64549;DHT22;49838;51.798;10.954;2023-12-20T00:31:49;11.80;49.80
64549;DHT22;49838;51.798;10.954;2023-12-20T00:34:16;11.80;49.70
64549;DHT22;49838;51.798;10.954;2023-12-20T00:36:44;11.80;49.70
64549;DHT22;49838;51.798;10.954;2023-12-20T00:39:11;11.80;49.70
64549;DHT22;49838;51.798;10.954;2023-12-20T00:41:38;11.80;49.70
64549;DHT22;49838;51.798;10.954;2023-12-20T00:44:05;11.80;49.70
64549;DHT22;49838;51.798;10.954;2023-12-20T00:46:32;11.90;49.60
64549;DHT22;49838;51.798;10.954;2023-12-20T00:49:01;11.90;49.60
64549;DHT22;49838;51.798;10.954;2023-12-20T00:51:28;11.90;49.60
64549;DHT22;49838;51.798;10.954;2023-12-20T00:53:55;12.00;49.70
64549;DHT22;49838;51.798;10.954;2023-12-20T00:56:23;11.90;49.60
64549;DHT22;49838;51.798;10.954;2023-12-20T00:58:50;11.90;49.60
64549;DHT22;49838;51.798;10.954;2023-12-20T01:01:17;11.90;49.60
64549;DHT22;49838;51.798;10.954;2023-12-20T01:03:44;11.90;49.60
64549;DHT22;49838;51.798;10.954;2023-12-20T01:06:13;12.00;49.70
64549;DHT22;49838;51.798;10.954;2023-12-20T01:08:41;12.00;49.60
64549;DHT22;49838;51.798;10.954;2023-12-20T01:11:08;11.90;49.60
64549;DHT22;49838;51.798;10.954;2023-12-20T01:13:36;11.90;49.70
64549;DHT22;49838;51.798;10.954;2023-12-20T01:16:03;12.00;49.70
64549;DHT22;49838;51.798;10.954;2023-12-20T01:18:31;11.90;49.60
64549;DHT22;49838;51.798;10.954;2023-12-20T01:21:01;12.00;49.70
64549;DHT22;49838;51.798;10.954;2023-12-20T01:23:30;12.00;49.70
64549;DHT22;49838;51.798;10.954;2023-12-20T01:25:57;12.00;49.60
64549;DHT22;49838;51.798;10.954;2023-12-20T01:28:26;11.90;49.60
64549;DHT22;49838;51.798;10.954;2023-12-20T01:30:53;12.00;49.70
64549;DHT22;49838;51.798;10.954;2023-12-20T01:33:20;12.00;49.60
64549;DHT22;49838;51.798;10.954;2023-12-20T01:35:47;12.00;49.50
64549;DHT22;49838;51.798;10.954;2023-12-20T01:38:15;12.00;49.50
64549;DHT22;49838;51.798;10.954;2023-12-20T01:40:45;12.00;49.40
64549;DHT22;49838;51.798;10.954;2023-12-20T01:43:13;12.00;49.50
64549;DHT22;49838;51.798;10.954;2023-12-20T01:45:40;12.00;49.50
64549;DHT22;49838;51.798;10.954;2023-12-20T01:48:08;12.00;49.60
64549;DHT22;49838;51.798;10.954;2023-12-20T01:50:36;12.00;49.50
64549;DHT22;49838;51.798;10.954;2023-12-20T01:53:05;12.00;49.40
64549;DHT22;49838;51.798;10.954;2023-12-20T01:55:36;12.00;49.40
64549;DHT22;49838;51.798;10.954;2023-12-20T01:58:08;12.10;49.50
64549;DHT22;49838;51.798;10.954;2023-12-20T02:00:37;12.10;49.40
64549;DHT22;49838;51.798;10.954;2023-12-20T02:03:04;12.10;49.30
64549;DHT22;49838;51.798;10.954;2023-12-20T02:05:34;12.20;49.40
64549;DHT22;49838;51.798;10.954;2023-12-20T02:08:02;12.20;49.40
64549;DHT22;49838;51.798;10.954;2023-12-20T02:10:30;12.20;49.40
64549;DHT22;49838;51.798;10.954;2023-12-20T02:12:57;12.20;49.40
64549;DHT22;49838;51.798;10.954;2023-12-20T02:15:25;12.30;49.40
64549;DHT22;49838;51.798;10.954;2023-12-20T02:17:53;12.30;49.20
64549;DHT22;49838;51.798;10.954;2023-12-20T02:20:21;12.30;49.70
64549;DHT22;49838;51.798;10.954;2023-12-20T02:22:49;12.40;49.20
64549;DHT22;49838;51.798;10.954;2023-12-20T02:25:17;12.40;49.20
64549;DHT22;49838;51.798;10.954;2023-12-20T02:27:44;12.30;49.20
64549;DHT22;49838;51.798;10.954;2023-12-20T02:30:11;12.30;49.10
64549;DHT22;49838;51.798;10.954;2023-12-20T02:32:39;12.30;49.20
64549;DHT22;49838;51.798;10.954;2023-12-20T02:35:06;12.30;49.20
64549;DHT22;49838;51.798;10.954;2023-12-20T02:37:33;12.30;49.30
64549;DHT22;49838;51.798;10.954;2023-12-20T02:40:02;12.20;49.20
64549;DHT22;49838;51.798;10.954;2023-12-20T02:42:30;12.20;49.20
64549;DHT22;49838;51.798;10.954;2023-12-20T02:44:57;12.20;49.20
64549;DHT22;49838;51.798;10.954;2023-12-20T02:47:24;12.20;49.20
64549;DHT22;49838;51.798;10.954;2023-12-20T02:49:52;12.20;49.30
64549;DHT22;49838;51.798;10.954;2023-12-20T02:52:19;12.20;49.20
64549;DHT22;49838;51.798;10.954;2023-12-20T02:54:47;12.20;49.20
64549;DHT22;49838;51.798;10.954;2023-12-20T02:57:15;12.20;49.10
64549;DHT22;49838;51.798;10.954;2023-12-20T02:59:42;12.30;49.10
64549;DHT22;49838;51.798;10.954;2023-12-20T03:02:10;12.30;49.10
64549;DHT22;49838;51.798;10.954;2023-12-20T03:04:37;12.30;49.00
64549;DHT22;49838;51.798;10.954;2023-12-20T03:07:04;12.40;49.10
64549;DHT22;49838;51.798;10.954;2023-12-20T03:09:31;12.50;49.10
64549;DHT22;49838;51.798;10.954;2023-12-20T03:11:59;12.50;49.00
64549;DHT22;49838;51.798;10.954;2023-12-20T03:14:27;12.60;48.90
64549;DHT22;49838;51.798;10.954;2023-12-20T03:16:55;12.60;49.00
64549;DHT22;49838;51.798;10.954;2023-12-20T03:19:22;12.50;49.10
64549;DHT22;49838;51.798;10.954;2023-12-20T03:21:49;12.50;49.20
64549;DHT22;49838;51.798;10.954;2023-12-20T03:24:18;12.50;49.20
64549;DHT22;49838;51.798;10.954;2023-12-20T03:26:46;12.60;49.30
64549;DHT22;49838;51.798;10.954;2023-12-20T03:29:13;12.50;49.20
64549;DHT22;49838;51.798;10.954;2023-12-20T03:31:42;12.60;49.20
64549;DHT22;49838;51.798;10.954;2023-12-20T03:34:09;12.50;49.00
64549;DHT22;49838;51.798;10.954;2023-12-20T03:36:36;12.50;49.10
64549;DHT22;49838;51.798;10.954;2023-12-20T03:39:04;12.50;49.20
64549;DHT22;49838;51.798;10.954;2023-12-20T03:41:32;12.50;49.20
64549;DHT22;49838;51.798;10.954;2023-12-20T03:43:59;12.40;49.10
64549;DHT22;49838;51.798;10.954;2023-12-20T03:46:26;12.50;49.10
64549;DHT22;49838;51.798;10.954;2023-12-20T03:48:55;12.40;49.10
64549;DHT22;49838;51.798;10.954;2023-12-20T03:51:22;12.50;49.20
64549;DHT22;49838;51.798;10.954;2023-12-20T03:53:49;12.50;49.00
64549;DHT22;49838;51.798;10.954;2023-12-20T03:56:16;12.50;49.00
64549;DHT22;49838;51.798;10.954;2023-12-20T03:58:44;12.60;49.00
64549;DHT22;49838;51.798;10.954;2023-12-20T04:01:11;12.60;49.00
64549;DHT22;49838;51.798;10.954;2023-12-20T04:03:38;12.60;49.00
64549;DHT22;49838;51.798;10.954;2023-12-20T04:06:07;12.60;49.00
64549;DHT22;49838;51.798;10.954;2023-12-20T04:08:34;12.60;49.50
64549;DHT22;49838;51.798;10.954;2023-12-20T04:11:02;12.60;48.90
64549;DHT22;49838;51.798;10.954;2023-12-20T04:13:29;12.60;48.90
64549;DHT22;49838;51.798;10.954;2023-12-20T04:15:56;12.60;48.80
64549;DHT22;49838;51.798;10.954;2023-12-20T04:18:23;12.60;48.80
64549;DHT22;49838;51.798;10.954;2023-12-20T04:20:51;12.50;48.70
64549;DHT22;49838;51.798;10.954;2023-12-20T04:23:19;12.60;48.80
64549;DHT22;49838;51.798;10.954;2023-12-20T04:25:46;12.60;48.80
64549;DHT22;49838;51.798;10.954;2023-12-20T04:28:14;12.60;48.70
64549;DHT22;49838;51.798;10.954;2023-12-20T04:30:41;12.50;48.70
64549;DHT22;49838;51.798;10.954;2023-12-20T04:33:09;12.50;48.70
64549;DHT22;49838;51.798;10.954;2023-12-20T04:35:36;12.60;48.70
64549;DHT22;49838;51.798;10.954;2023-12-20T04:38:03;12.60;48.70
64549;DHT22;49838;51.798;10.954;2023-12-20T04:40:32;12.60;48.70
64549;DHT22;49838;51.798;10.954;2023-12-20T04:42:59;12.60;48.60
64549;DHT22;49838;51.798;10.954;2023-12-20T04:45:26;12.70;48.50
64549;DHT22;49838;51.798;10.954;2023-12-20T04:47:54;12.60;48.50
64549;DHT22;49838;51.798;10.954;2023-12-20T04:50:22;12.60;48.50
64549;DHT22;49838;51.798;10.954;2023-12-20T04:52:49;12.60;48.40
64549;DHT22;49838;51.798;10.954;2023-12-20T04:55:16;12.50;48.40
64549;DHT22;49838;51.798;10.954;2023-12-20T04:57:45;12.40;48.40
64549;DHT22;49838;51.798;10.954;2023-12-20T05:00:13;12.30;48.40
64549;DHT22;49838;51.798;10.954;2023-12-20T05:02:41;12.20;48.30
64549;DHT22;49838;51.798;10.954;2023-12-20T05:05:08;12.20;48.30
64549;DHT22;49838;51.798;10.954;2023-12-20T05:07:35;12.10;48.40
64549;DHT22;49838;51.798;10.954;2023-12-20T05:10:03;12.10;48.30
64549;DHT22;49838;51.798;10.954;2023-12-20T05:12:31;12.00;48.20
64549;DHT22;49838;51.798;10.954;2023-12-20T05:14:59;12.00;48.10
64549;DHT22;49838;51.798;10.954;2023-12-20T05:17:27;11.90;48.00
64549;DHT22;49838;51.798;10.954;2023-12-20T05:19:54;11.90;47.70
64549;DHT22;49838;51.798;10.954;2023-12-20T05:22:21;11.80;47.60
64549;DHT22;49838;51.798;10.954;2023-12-20T05:24:52;11.80;47.60
64549;DHT22;49838;51.798;10.954;2023-12-20T05:27:19;11.70;47.60
64549;DHT22;49838;51.798;10.954;2023-12-20T05:29:46;11.70;47.60
64549;DHT22;49838;51.798;10.954;2023-12-20T05:32:15;11.80;47.70
64549;DHT22;49838;51.798;10.954;2023-12-20T05:34:42;11.80;47.80
64549;DHT22;49838;51.798;10.954;2023-12-20T05:37:10;11.80;47.60
64549;DHT22;49838;51.798;10.954;2023-12-20T05:39:37;11.80;47.40
64549;DHT22;49838;51.798;10.954;2023-12-20T05:42:04;11.80;47.10
64549;DHT22;49838;51.798;10.954;2023-12-20T05:44:32;11.70;47.30
64549;DHT22;49838;51.798;10.954;2023-12-20T05:46:59;11.70;47.50
64549;DHT22;49838;51.798;10.954;2023-12-20T05:49:28;11.70;47.40
64549;DHT22;49838;51.798;10.954;2023-12-20T05:51:55;11.70;47.30
64549;DHT22;49838;51.798;10.954;2023-12-20T05:54:22;11.60;47.30
64549;DHT22;49838;51.798;10.954;2023-12-20T05:56:49;11.60;47.40
64549;DHT22;49838;51.798;10.954;2023-12-20T05:59:16;11.50;47.30
64549;DHT22;49838;51.798;10.954;2023-12-20T06:01:43;11.50;47.30
64549;DHT22;49838;51.798;10.954;2023-12-20T06:04:11;11.50;47.40
64549;DHT22;49838;51.798;10.954;2023-12-20T06:06:41;11.50;47.60
64549;DHT22;49838;51.798;10.954;2023-12-20T06:09:08;11.50;47.50
64549;DHT22;49838;51.798;10.954;2023-12-20T06:11:36;11.50;47.50
64549;DHT22;49838;51.798;10.954;2023-12-20T06:14:04;11.50;47.40
64549;DHT22;49838;51.798;10.954;2023-12-20T06:16:31;11.50;47.40
64549;DHT22;49838;51.798;10.954;2023-12-20T06:18:58;11.50;47.30
64549;DHT22;49838;51.798;10.954;2023-12-20T06:21:26;11.60;47.30
64549;DHT22;49838;51.798;10.954;2023-12-20T06:23:54;11.60;47.30
64549;DHT22;49838;51.798;10.954;2023-12-20T06:26:21;11.60;47.20
64549;DHT22;49838;51.798;10.954;2023-12-20T06:28:49;11.60;47.00
64549;DHT22;49838;51.798;10.954;2023-12-20T06:31:16;11.70;47.00
64549;DHT22;49838;51.798;10.954;2023-12-20T06:33:43;11.70;47.00
64549;DHT22;49838;51.798;10.954;2023-12-20T06:36:11;11.70;46.80
64549;DHT22;49838;51.798;10.954;2023-12-20T06:38:39;11.80;46.90
64549;DHT22;49838;51.798;10.954;2023-12-20T06:41:12;11.80;47.00
64549;DHT22;49838;51.798;10.954;2023-12-20T06:43:40;11.80;46.90
64549;DHT22;49838;51.798;10.954;2023-12-20T06:46:07;11.90;47.10
64549;DHT22;49838;51.798;10.954;2023-12-20T06:48:35;11.80;47.00
64549;DHT22;49838;51.798;10.954;2023-12-20T06:51:02;11.80;46.80
64549;DHT22;49838;51.798;10.954;2023-12-20T06:53:30;11.90;47.00
64549;DHT22;49838;51.798;10.954;2023-12-20T06:55:57;11.80;47.10
64549;DHT22;49838;51.798;10.954;2023-12-20T06:58:25;11.80;47.20
64549;DHT22;49838;51.798;10.954;2023-12-20T07:00:53;11.80;47.10
64549;DHT22;49838;51.798;10.954;2023-12-20T07:03:20;11.80;46.90
64549;DHT22;49838;51.798;10.954;2023-12-20T07:05:46;11.90;46.90
64549;DHT22;49838;51.798;10.954;2023-12-20T07:08:14;11.80;46.90
64549;DHT22;49838;51.798;10.954;2023-12-20T07:10:41;11.80;47.00
64549;DHT22;49838;51.798;10.954;2023-12-20T07:13:08;11.80;47.00
64549;DHT22;49838;51.798;10.954;2023-12-20T07:15:37;11.80;47.00
64549;DHT22;49838;51.798;10.954;2023-12-20T07:18:04;11.70;47.00
64549;DHT22;49838;51.798;10.954;2023-12-20T07:20:32;11.80;47.00
64549;DHT22;49838;51.798;10.954;2023-12-20T07:22:59;11.80;47.10
64549;DHT22;49838;51.798;10.954;2023-12-20T07:25:28;11.90;47.10
64549;DHT22;49838;51.798;10.954;2023-12-20T07:27:58;12.00;47.00
64549;DHT22;49838;51.798;10.954;2023-12-20T07:30:25;12.00;46.90
64549;DHT22;49838;51.798;10.954;2023-12-20T07:32:54;11.90;46.90
64549;DHT22;49838;51.798;10.954;2023-12-20T07:35:21;11.80;47.00
64549;DHT22;49838;51.798;10.954;2023-12-20T07:37:49;11.80;47.00
64549;DHT22;49838;51.798;10.954;2023-12-20T07:40:16;11.70;46.70
64549;DHT22;49838;51.798;10.954;2023-12-20T07:42:44;11.70;46.80
64549;DHT22;49838;51.798;10.954;2023-12-20T07:45:11;11.80;46.80
64549;DHT22;49838;51.798;10.954;2023-12-20T07:47:38;11.90;46.80
64549;DHT22;49838;51.798;10.954;2023-12-20T07:50:08;11.90;46.70
64549;DHT22;49838;51.798;10.954;2023-12-20T07:52:36;11.90;46.90
64549;DHT22;49838;51.798;10.954;2023-12-20T07:55:03;11.90;47.00
64549;DHT22;49838;51.798;10.954;2023-12-20T07:57:31;11.90;46.90
64549;DHT22;49838;51.798;10.954;2023-12-20T07:59:58;11.80;46.90
64549;DHT22;49838;51.798;10.954;2023-12-20T08:02:25;11.80;47.00
64549;DHT22;49838;51.798;10.954;2023-12-20T08:04:52;11.80;47.00
64549;DHT22;49838;51.798;10.954;2023-12-20T08:07:21;11.80;47.10
64549;DHT22;49838;51.798;10.954;2023-12-20T08:09:48;11.90;47.10
64549;DHT22;49838;51.798;10.954;2023-12-20T08:12:17;12.00;47.00
64549;DHT22;49838;51.798;10.954;2023-12-20T08:14:44;12.10;47.10
64549;DHT22;49838;51.798;10.954;2023-12-20T08:17:11;12.10;47.00
64549;DHT22;49838;51.798;10.954;2023-12-20T08:19:42;12.10;47.00
64549;DHT22;49838;51.798;10.954;2023-12-20T08:22:09;12.20;47.00
64549;DHT22;49838;51.798;10.954;2023-12-20T08:24:37;12.20;46.90
64549;DHT22;49838;51.798;10.954;2023-12-20T08:27:05;12.20;46.80
64549;DHT22;49838;51.798;10.954;2023-12-20T08:29:32;12.20;46.80
64549;DHT22;49838;51.798;10.954;2023-12-20T08:31:59;12.30;46.80
64549;DHT22;49838;51.798;10.954;2023-12-20T08:34:27;12.30;46.80
64549;DHT22;49838;51.798;10.954;2023-12-20T08:36:54;12.30;46.70
64549;DHT22;49838;51.798;10.954;2023-12-20T08:39:21;12.40;46.70
64549;DHT22;49838;51.798;10.954;2023-12-20T08:41:50;12.30;46.60
64549;DHT22;49838;51.798;10.954;2023-12-20T08:44:17;12.20;46.50
64549;DHT22;49838;51.798;10.954;2023-12-20T08:46:44;12.20;46.60
64549;DHT22;49838;51.798;10.954;2023-12-20T08:49:12;12.30;46.50
64549;DHT22;49838;51.798;10.954;2023-12-20T08:51:39;12.30;46.20
64549;DHT22;49838;51.798;10.954;2023-12-20T08:54:07;12.40;46.40
64549;DHT22;49838;51.798;10.954;2023-12-20T08:56:34;12.40;46.40
64549;DHT22;49838;51.798;10.954;2023-12-20T08:59:03;12.50;46.40
64549;DHT22;49838;51.798;10.954;2023-12-20T09:01:30;12.60;46.30
64549;DHT22;49838;51.798;10.954;2023-12-20T09:03:57;12.60;46.50
64549;DHT22;49838;51.798;10.954;2023-12-20T09:06:25;12.60;46.30
64549;DHT22;49838;51.798;10.954;2023-12-20T09:08:52;12.60;46.20
64549;DHT22;49838;51.798;10.954;2023-12-20T09:11:19;12.60;45.90
64549;DHT22;49838;51.798;10.954;2023-12-20T09:13:47;12.70;46.20
64549;DHT22;49838;51.798;10.954;2023-12-20T09:16:15;12.70;46.10
64549;DHT22;49838;51.798;10.954;2023-12-20T09:18:43;12.90;46.30
64549;DHT22;49838;51.798;10.954;2023-12-20T09:21:10;12.90;46.20
64549;DHT22;49838;51.798;10.954;2023-12-20T09:23:38;13.10;46.30
64549;DHT22;49838;51.798;10.954;2023-12-20T09:26:05;13.20;46.50
64549;DHT22;49838;51.798;10.954;2023-12-20T09:28:33;13.60;47.50
64549;DHT22;49838;51.798;10.954;2023-12-20T09:31:03;14.20;48.10
64549;DHT22;49838;51.798;10.954;2023-12-20T09:33:32;14.80;48.70
64549;DHT22;49838;51.798;10.954;2023-12-20T09:36:00;15.40;49.10
64549;DHT22;49838;51.798;10.954;2023-12-20T09:38:27;16.00;49.00
64549;DHT22;49838;51.798;10.954;2023-12-20T09:40:55;16.60;48.60
64549;DHT22;49838;51.798;10.954;2023-12-20T09:43:23;17.10;49.00
64549;DHT22;49838;51.798;10.954;2023-12-20T09:45:52;17.60;48.10
64549;DHT22;49838;51.798;10.954;2023-12-20T09:48:24;18.00;47.70
64549;DHT22;49838;51.798;10.954;2023-12-20T09:50:55;18.20;46.70
64549;DHT22;49838;51.798;10.954;2023-12-20T09:53:22;18.50;47.10
64549;DHT22;49838;51.798;10.954;2023-12-20T09:55:55;18.70;47.20
64549;DHT22;49838;51.798;10.954;2023-12-20T09:58:26;18.80;46.70
64549;DHT22;49838;51.798;10.954;2023-12-20T10:00:53;18.90;45.50
64549;DHT22;49838;51.798;10.954;2023-12-20T10:03:23;19.00;45.90
64549;DHT22;49838;51.798;10.954;2023-12-20T10:05:52;19.00;45.10
64549;DHT22;49838;51.798;10.954;2023-12-20T10:08:24;19.10;45.30
64549;DHT22;49838;51.798;10.954;2023-12-20T10:10:51;19.10;44.60
64549;DHT22;49838;51.798;10.954;2023-12-20T10:13:19;19.10;44.70
64549;DHT22;49838;51.798;10.954;2023-12-20T10:15:46;19.20;45.00
64549;DHT22;49838;51.798;10.954;2023-12-20T10:18:13;19.20;45.20
64549;DHT22;49838;51.798;10.954;2023-12-20T10:20:43;19.40;45.20
64549;DHT22;49838;51.798;10.954;2023-12-20T10:23:13;19.50;45.00
64549;DHT22;49838;51.798;10.954;2023-12-20T10:25:43;19.60;44.40
64549;DHT22;49838;51.798;10.954;2023-12-20T10:28:22;19.60;43.70
64549;DHT22;49838;51.798;10.954;2023-12-20T10:30:53;19.50;44.00
64549;DHT22;49838;51.798;10.954;2023-12-20T10:33:23;19.50;43.50
64549;DHT22;49838;51.798;10.954;2023-12-20T10:35:51;19.50;43.90
64549;DHT22;49838;51.798;10.954;2023-12-20T10:38:21;19.50;44.10
64549;DHT22;49838;51.798;10.954;2023-12-20T10:40:49;19.60;45.00
64549;DHT22;49838;51.798;10.954;2023-12-20T10:43:23;19.70;45.20
64549;DHT22;49838;51.798;10.954;2023-12-20T10:45:52;19.90;45.50
64549;DHT22;49838;51.798;10.954;2023-12-20T10:48:20;20.10;46.00
64549;DHT22;49838;51.798;10.954;2023-12-20T10:50:52;20.30;44.30
64549;DHT22;49838;51.798;10.954;2023-12-20T10:53:23;20.30;45.00
64549;DHT22;49838;51.798;10.954;2023-12-20T10:55:52;20.50;45.10
64549;DHT22;49838;51.798;10.954;2023-12-20T10:58:22;20.60;45.40
64549;DHT22;49838;51.798;10.954;2023-12-20T11:00:51;20.80;45.00
64549;DHT22;49838;51.798;10.954;2023-12-20T11:03:24;21.00;44.20
64549;DHT22;49838;51.798;10.954;2023-12-20T11:05:56;21.00;44.40
64549;DHT22;49838;51.798;10.954;2023-12-20T11:08:33;21.00;43.30
64549;DHT22;49838;51.798;10.954;2023-12-20T11:11:07;20.70;42.30
64549;DHT22;49838;51.798;10.954;2023-12-20T11:13:40;20.40;41.80
64549;DHT22;49838;51.798;10.954;2023-12-20T11:16:17;19.90;41.40
64549;DHT22;49838;51.798;10.954;2023-12-20T11:18:45;19.30;41.60
64549;DHT22;49838;51.798;10.954;2023-12-20T11:21:12;18.80;41.60
64549;DHT22;49838;51.798;10.954;2023-12-20T11:23:42;18.40;41.90
64549;DHT22;49838;51.798;10.954;2023-12-20T11:26:09;17.90;42.00
64549;DHT22;49838;51.798;10.954;2023-12-20T11:28:36;17.60;41.70
64549;DHT22;49838;51.798;10.954;2023-12-20T11:31:04;17.20;41.60
64549;DHT22;49838;51.798;10.954;2023-12-20T11:33:35;16.90;41.90
64549;DHT22;49838;51.798;10.954;2023-12-20T11:36:07;16.70;41.70
64549;DHT22;49838;51.798;10.954;2023-12-20T11:38:50;16.50;41.80
64549;DHT22;49838;51.798;10.954;2023-12-20T11:41:23;16.30;42.10
64549;DHT22;49838;51.798;10.954;2023-12-20T11:43:55;16.20;42.80
64549;DHT22;49838;51.798;10.954;2023-12-20T11:46:23;15.90;42.30
64549;DHT22;49838;51.798;10.954;2023-12-20T11:48:51;15.60;42.30
64549;DHT22;49838;51.798;10.954;2023-12-20T11:51:18;15.40;42.50
64549;DHT22;49838;51.798;10.954;2023-12-20T11:53:50;15.10;42.60
64549;DHT22;49838;51.798;10.954;2023-12-20T11:56:19;14.90;42.80
64549;DHT22;49838;51.798;10.954;2023-12-20T11:58:47;14.70;42.90
64549;DHT22;49838;51.798;10.954;2023-12-20T12:01:14;14.50;43.10
64549;DHT22;49838;51.798;10.954;2023-12-20T12:03:42;14.30;43.20
64549;DHT22;49838;51.798;10.954;2023-12-20T12:06:09;14.10;43.30
64549;DHT22;49838;51.798;10.954;2023-12-20T12:08:37;14.00;43.50
64549;DHT22;49838;51.798;10.954;2023-12-20T12:11:05;13.90;44.20
64549;DHT22;49838;51.798;10.954;2023-12-20T12:13:33;13.80;43.80
64549;DHT22;49838;51.798;10.954;2023-12-20T12:16:01;13.70;43.80
64549;DHT22;49838;51.798;10.954;2023-12-20T12:18:28;13.60;43.80
64549;DHT22;49838;51.798;10.954;2023-12-20T12:20:59;13.50;44.00
64549;DHT22;49838;51.798;10.954;2023-12-20T12:23:27;13.50;44.10
64549;DHT22;49838;51.798;10.954;2023-12-20T12:25:54;13.40;44.10
64549;DHT22;49838;51.798;10.954;2023-12-20T12:28:28;13.30;44.40
64549;DHT22;49838;51.798;10.954;2023-12-20T12:31:00;13.30;44.30
64549;DHT22;49838;51.798;10.954;2023-12-20T12:33:27;13.40;44.40
64549;DHT22;49838;51.798;10.954;2023-12-20T12:35:55;13.40;44.40
64549;DHT22;49838;51.798;10.954;2023-12-20T12:38:22;13.40;44.60
64549;DHT22;49838;51.798;10.954;2023-12-20T12:40:50;13.40;44.60
64549;DHT22;49838;51.798;10.954;2023-12-20T12:43:23;13.50;44.80
64549;DHT22;49838;51.798;10.954;2023-12-20T12:45:54;13.50;44.70
64549;DHT22;49838;51.798;10.954;2023-12-20T12:48:22;13.50;44.70
64549;DHT22;49838;51.798;10.954;2023-12-20T12:50:49;13.60;44.80
64549;DHT22;49838;51.798;10.954;2023-12-20T12:53:19;13.60;44.80
64549;DHT22;49838;51.798;10.954;2023-12-20T12:55:49;13.60;44.80
64549;DHT22;49838;51.798;10.954;2023-12-20T12:58:17;13.50;45.00
64549;DHT22;49838;51.798;10.954;2023-12-20T13:00:46;13.50;45.00
64549;DHT22;49838;51.798;10.954;2023-12-20T13:03:14;13.40;45.70
64549;DHT22;49838;51.798;10.954;2023-12-20T13:05:41;13.30;45.10
64549;DHT22;49838;51.798;10.954;2023-12-20T13:08:09;13.30;45.20
64549;DHT22;49838;51.798;10.954;2023-12-20T13:10:38;13.20;45.20
64549;DHT22;49838;51.798;10.954;2023-12-20T13:13:05;13.10;45.40
64549;DHT22;49838;51.798;10.954;2023-12-20T13:15:32;13.00;45.50
64549;DHT22;49838;51.798;10.954;2023-12-20T13:17:59;12.90;45.40
64549;DHT22;49838;51.798;10.954;2023-12-20T13:20:28;12.90;45.50
64549;DHT22;49838;51.798;10.954;2023-12-20T13:22:55;12.90;45.50
64549;DHT22;49838;51.798;10.954;2023-12-20T13:25:22;12.90;45.60
64549;DHT22;49838;51.798;10.954;2023-12-20T13:27:49;12.90;45.50
64549;DHT22;49838;51.798;10.954;2023-12-20T13:30:17;12.90;45.60
64549;DHT22;49838;51.798;10.954;2023-12-20T13:32:44;12.90;45.90
64549;DHT22;49838;51.798;10.954;2023-12-20T13:35:11;12.80;45.70
64549;DHT22;49838;51.798;10.954;2023-12-20T13:37:40;12.80;45.90
64549;DHT22;49838;51.798;10.954;2023-12-20T13:40:08;12.70;45.90
64549;DHT22;49838;51.798;10.954;2023-12-20T13:42:35;12.60;46.20
64549;DHT22;49838;51.798;10.954;2023-12-20T13:45:03;12.50;46.50
64549;DHT22;49838;51.798;10.954;2023-12-20T13:47:31;12.40;46.10
64549;DHT22;49838;51.798;10.954;2023-12-20T13:49:58;12.30;46.20
64549;DHT22;49838;51.798;10.954;2023-12-20T13:52:26;12.30;46.10
64549;DHT22;49838;51.798;10.954;2023-12-20T13:54:54;12.30;46.20
64549;DHT22;49838;51.798;10.954;2023-12-20T13:57:21;12.20;46.00
64549;DHT22;49838;51.798;10.954;2023-12-20T13:59:49;12.20;46.30
64549;DHT22;49838;51.798;10.954;2023-12-20T14:02:19;12.20;46.10
64549;DHT22;49838;51.798;10.954;2023-12-20T14:04:46;12.10;45.90
64549;DHT22;49838;51.798;10.954;2023-12-20T14:07:13;12.00;45.80
64549;DHT22;49838;51.798;10.954;2023-12-20T14:09:41;11.90;46.50
64549;DHT22;49838;51.798;10.954;2023-12-20T14:12:12;11.80;45.90
64549;DHT22;49838;51.798;10.954;2023-12-20T14:14:41;11.60;45.70
64549;DHT22;49838;51.798;10.954;2023-12-20T14:17:13;11.60;45.70
64549;DHT22;49838;51.798;10.954;2023-12-20T14:19:40;11.50;45.60
64549;DHT22;49838;51.798;10.954;2023-12-20T14:22:08;11.50;45.60
64549;DHT22;49838;51.798;10.954;2023-12-20T14:24:35;11.50;45.80
64549;DHT22;49838;51.798;10.954;2023-12-20T14:27:02;11.50;45.50
64549;DHT22;49838;51.798;10.954;2023-12-20T14:29:31;11.50;45.40
64549;DHT22;49838;51.798;10.954;2023-12-20T14:31:58;11.40;45.40
64549;DHT22;49838;51.798;10.954;2023-12-20T14:34:29;11.40;45.40
64549;DHT22;49838;51.798;10.954;2023-12-20T14:36:59;11.30;45.40
64549;DHT22;49838;51.798;10.954;2023-12-20T14:39:26;11.30;45.50
64549;DHT22;49838;51.798;10.954;2023-12-20T14:41:53;11.20;45.50
64549;DHT22;49838;51.798;10.954;2023-12-20T14:44:21;11.10;45.50
64549;DHT22;49838;51.798;10.954;2023-12-20T14:46:52;11.10;45.80
64549;DHT22;49838;51.798;10.954;2023-12-20T14:49:22;11.00;45.70
64549;DHT22;49838;51.798;10.954;2023-12-20T14:51:49;11.00;45.90
64549;DHT22;49838;51.798;10.954;2023-12-20T14:54:16;10.90;45.90
64549;DHT22;49838;51.798;10.954;2023-12-20T14:56:46;10.90;46.10
64549;DHT22;49838;51.798;10.954;2023-12-20T14:59:14;10.80;46.10
64549;DHT22;49838;51.798;10.954;2023-12-20T15:01:41;10.80;46.30
64549;DHT22;49838;51.798;10.954;2023-12-20T15:04:12;10.80;46.40
64549;DHT22;49838;51.798;10.954;2023-12-20T15:06:43;10.80;46.70
64549;DHT22;49838;51.798;10.954;2023-12-20T15:09:13;10.80;46.70
64549;DHT22;49838;51.798;10.954;2023-12-20T15:11:40;10.90;46.90
64549;DHT22;49838;51.798;10.954;2023-12-20T15:14:09;10.90;46.80
64549;DHT22;49838;51.798;10.954;2023-12-20T15:16:37;11.00;47.10
64549;DHT22;49838;51.798;10.954;2023-12-20T15:19:04;11.10;47.10
64549;DHT22;49838;51.798;10.954;2023-12-20T15:21:33;11.20;47.00